sensor_id;sensor_type;location;lat;lon;timestamp;pressure;altitude;pressure_sealevel;temperature;humidity
78168;BME280;67410;42.698;23.378;2024-03-08T00:00:02;95679.88;;;5.78;88.96
78168;BME280;67410;42.698;23.378;2024-03-08T00:02:36;95673.44;;;5.74;88.18
78168;BME280;67410;42.698;23.378;2024-03-08T00:05:06;95678.06;;;5.78;88.18
78168;BME280;67410;42.698;23.378;2024-03-08T00:07:35;95672.69;;;5.80;88.02
78168;BME280;67410;42.698;23.378;2024-03-08T00:10:03;95673.31;;;5.82;87.92
78168;BME280;67410;42.698;23.378;2024-03-08T00:12:29;95665.38;;;5.75;88.19
78168;BME280;67410;42.698;23.378;2024-03-08T00:14:57;95676.47;;;5.77;88.26
78168;BME280;67410;42.698;23.378;2024-03-08T00:17:23;95674.41;;;5.73;88.32
78168;BME280;67410;42.698;23.378;2024-03-08T00:19:49;95671.00;;;5.72;88.28
78168;BME280;67410;42.698;23.378;2024-03-08T00:22:16;95673.88;;;5.63;88.70
78168;BME280;67410;42.698;23.378;2024-03-08T00:24:43;95673.84;;;5.48;89.88
78168;BME280;67410;42.698;23.378;2024-03-08T00:27:09;95667.56;;;5.42;88.89
78168;BME280;67410;42.698;23.378;2024-03-08T00:29:36;95662.88;;;5.53;89.62
78168;BME280;67410;42.698;23.378;2024-03-08T00:32:04;95671.78;;;5.58;90.13
78168;BME280;67410;42.698;23.378;2024-03-08T00:34:30;95664.13;;;5.57;90.60
78168;BME280;67410;42.698;23.378;2024-03-08T00:36:57;95657.13;;;5.57;90.63
78168;BME280;67410;42.698;23.378;2024-03-08T00:39:24;95661.69;;;5.55;90.74
78168;BME280;67410;42.698;23.378;2024-03-08T00:41:51;95660.72;;;5.56;90.28
78168;BME280;67410;42.698;23.378;2024-03-08T00:44:17;95659.09;;;5.55;89.97
78168;BME280;67410;42.698;23.378;2024-03-08T00:46:43;95661.16;;;5.60;90.76
78168;BME280;67410;42.698;23.378;2024-03-08T00:49:09;95650.00;;;5.51;91.03
78168;BME280;67410;42.698;23.378;2024-03-08T00:51:35;95652.25;;;5.54;90.94
78168;BME280;67410;42.698;23.378;2024-03-08T00:54:01;95651.06;;;5.57;90.67
78168;BME280;67410;42.698;23.378;2024-03-08T00:56:27;95648.66;;;5.55;90.38
78168;BME280;67410;42.698;23.378;2024-03-08T00:58:54;95643.31;;;5.49;90.83
78168;BME280;67410;42.698;23.378;2024-03-08T01:01:20;95639.47;;;5.44;90.24
78168;BME280;67410;42.698;23.378;2024-03-08T01:03:46;95636.59;;;5.39;90.83
78168;BME280;67410;42.698;23.378;2024-03-08T01:06:12;95633.34;;;5.37;91.73
78168;BME280;67410;42.698;23.378;2024-03-08T01:08:38;95635.69;;;5.32;91.51
78168;BME280;67410;42.698;23.378;2024-03-08T01:11:06;95629.03;;;5.30;91.97
78168;BME280;67410;42.698;23.378;2024-03-08T01:13:32;95625.50;;;5.08;93.04
78168;BME280;67410;42.698;23.378;2024-03-08T01:15:58;95634.06;;;5.17;93.31
78168;BME280;67410;42.698;23.378;2024-03-08T01:18:24;95622.06;;;5.22;92.74
78168;BME280;67410;42.698;23.378;2024-03-08T01:20:51;95623.16;;;5.28;92.42
78168;BME280;67410;42.698;23.378;2024-03-08T01:23:17;95621.44;;;5.20;91.86
78168;BME280;67410;42.698;23.378;2024-03-08T01:25:43;95615.88;;;5.23;92.72
78168;BME280;67410;42.698;23.378;2024-03-08T01:28:10;95615.50;;;5.26;91.98
78168;BME280;67410;42.698;23.378;2024-03-08T01:30:38;95612.28;;;5.09;91.99
78168;BME280;67410;42.698;23.378;2024-03-08T01:33:05;95616.44;;;5.19;92.20
78168;BME280;67410;42.698;23.378;2024-03-08T01:35:31;95610.28;;;5.26;92.07
78168;BME280;67410;42.698;23.378;2024-03-08T01:37:58;95609.31;;;5.13;91.85
78168;BME280;67410;42.698;23.378;2024-03-08T01:40:24;95614.63;;;5.19;91.84
78168;BME280;67410;42.698;23.378;2024-03-08T01:42:50;95605.59;;;5.22;91.39
78168;BME280;67410;42.698;23.378;2024-03-08T01:45:17;95610.75;;;5.30;91.04
78168;BME280;67410;42.698;23.378;2024-03-08T01:47:43;95609.31;;;5.27;91.09
78168;BME280;67410;42.698;23.378;2024-03-08T01:50:09;95601.66;;;5.26;91.42
78168;BME280;67410;42.698;23.378;2024-03-08T01:52:36;95614.00;;;5.32;91.08
78168;BME280;67410;42.698;23.378;2024-03-08T01:55:05;95607.50;;;5.28;89.64
78168;BME280;67410;42.698;23.378;2024-03-08T01:57:33;95599.31;;;5.31;90.42
78168;BME280;67410;42.698;23.378;2024-03-08T02:00:01;95603.72;;;5.30;88.93
78168;BME280;67410;42.698;23.378;2024-03-08T02:02:32;95602.72;;;5.31;89.33
78168;BME280;67410;42.698;23.378;2024-03-08T02:05:00;95597.50;;;5.31;89.14
78168;BME280;67410;42.698;23.378;2024-03-08T02:07:26;95592.22;;;5.10;89.53
78168;BME280;67410;42.698;23.378;2024-03-08T02:09:53;95595.09;;;5.15;90.22
78168;BME280;67410;42.698;23.378;2024-03-08T02:12:20;95598.75;;;5.21;90.22
78168;BME280;67410;42.698;23.378;2024-03-08T02:14:46;95599.03;;;5.26;89.61
78168;BME280;67410;42.698;23.378;2024-03-08T02:17:13;95601.13;;;5.30;88.92
78168;BME280;67410;42.698;23.378;2024-03-08T02:19:39;95601.13;;;5.30;88.93
78168;BME280;67410;42.698;23.378;2024-03-08T02:22:06;95606.34;;;5.30;88.49
78168;BME280;67410;42.698;23.378;2024-03-08T02:24:32;95610.84;;;5.36;88.17
78168;BME280;67410;42.698;23.378;2024-03-08T02:26:58;95606.06;;;5.25;86.41
78168;BME280;67410;42.698;23.378;2024-03-08T02:29:24;95605.22;;;4.95;88.37
78168;BME280;67410;42.698;23.378;2024-03-08T02:31:51;95610.38;;;4.89;87.34
78168;BME280;67410;42.698;23.378;2024-03-08T02:34:17;95610.78;;;4.78;87.69
78168;BME280;67410;42.698;23.378;2024-03-08T02:36:43;95620.22;;;4.64;89.59
78168;BME280;67410;42.698;23.378;2024-03-08T02:39:10;95624.19;;;4.74;90.05
78168;BME280;67410;42.698;23.378;2024-03-08T02:41:36;95622.03;;;4.78;89.77
78168;BME280;67410;42.698;23.378;2024-03-08T02:44:02;95613.47;;;4.69;87.96
78168;BME280;67410;42.698;23.378;2024-03-08T02:46:30;95618.50;;;4.71;87.10
78168;BME280;67410;42.698;23.378;2024-03-08T02:48:57;95628.28;;;4.69;87.32
78168;BME280;67410;42.698;23.378;2024-03-08T02:51:23;95626.59;;;4.61;87.60
78168;BME280;67410;42.698;23.378;2024-03-08T02:53:52;95624.34;;;4.58;86.22
78168;BME280;67410;42.698;23.378;2024-03-08T02:56:18;95619.75;;;4.60;86.27
78168;BME280;67410;42.698;23.378;2024-03-08T02:58:44;95618.72;;;4.47;86.72
78168;BME280;67410;42.698;23.378;2024-03-08T03:01:15;95617.94;;;4.38;86.75
78168;BME280;67410;42.698;23.378;2024-03-08T03:03:41;95616.63;;;4.42;87.60
78168;BME280;67410;42.698;23.378;2024-03-08T03:06:08;95615.59;;;4.51;86.95
78168;BME280;67410;42.698;23.378;2024-03-08T03:08:34;95617.66;;;4.56;87.29
78168;BME280;67410;42.698;23.378;2024-03-08T03:11:00;95621.44;;;4.53;86.82
78168;BME280;67410;42.698;23.378;2024-03-08T03:13:27;95621.44;;;4.53;86.19
78168;BME280;67410;42.698;23.378;2024-03-08T03:15:55;95624.34;;;4.58;86.40
78168;BME280;67410;42.698;23.378;2024-03-08T03:18:23;95625.44;;;4.64;86.70
78168;BME280;67410;42.698;23.378;2024-03-08T03:20:49;95630.44;;;4.65;86.23
78168;BME280;67410;42.698;23.378;2024-03-08T03:23:16;95622.00;;;4.63;85.28
78168;BME280;67410;42.698;23.378;2024-03-08T03:25:47;95631.63;;;4.63;84.96
78168;BME280;67410;42.698;23.378;2024-03-08T03:28:13;95636.28;;;4.53;85.08
78168;BME280;67410;42.698;23.378;2024-03-08T03:30:46;95637.88;;;4.54;86.02
78168;BME280;67410;42.698;23.378;2024-03-08T03:33:12;95638.28;;;4.42;85.54
78168;BME280;67410;42.698;23.378;2024-03-08T03:35:40;95643.97;;;4.46;85.31
78168;BME280;67410;42.698;23.378;2024-03-08T03:38:07;95636.50;;;4.43;85.21
78168;BME280;67410;42.698;23.378;2024-03-08T03:40:34;95649.19;;;4.46;85.52
78168;BME280;67410;42.698;23.378;2024-03-08T03:43:01;95651.78;;;4.46;84.09
78168;BME280;67410;42.698;23.378;2024-03-08T03:45:29;95651.84;;;4.38;84.67
78168;BME280;67410;42.698;23.378;2024-03-08T03:47:59;95650.81;;;4.24;84.56
78168;BME280;67410;42.698;23.378;2024-03-08T03:50:26;95654.78;;;4.12;85.85
78168;BME280;67410;42.698;23.378;2024-03-08T03:52:52;95650.84;;;4.16;86.48
78168;BME280;67410;42.698;23.378;2024-03-08T03:55:20;95660.13;;;4.19;87.30
78168;BME280;67410;42.698;23.378;2024-03-08T03:57:48;95665.63;;;4.24;86.64
78168;BME280;67410;42.698;23.378;2024-03-08T04:00:15;95663.03;;;4.24;85.79
78168;BME280;67410;42.698;23.378;2024-03-08T04:02:41;95656.41;;;4.13;85.42
78168;BME280;67410;42.698;23.378;2024-03-08T04:05:09;95672.81;;;4.22;86.27
78168;BME280;67410;42.698;23.378;2024-03-08T04:07:35;95672.00;;;4.21;85.55
78168;BME280;67410;42.698;23.378;2024-03-08T04:10:02;95664.53;;;4.18;85.25
78168;BME280;67410;42.698;23.378;2024-03-08T04:12:29;95679.31;;;4.26;85.17
78168;BME280;67410;42.698;23.378;2024-03-08T04:14:56;95677.84;;;4.23;85.73
78168;BME280;67410;42.698;23.378;2024-03-08T04:17:22;95672.91;;;4.05;86.77
78168;BME280;67410;42.698;23.378;2024-03-08T04:19:50;95683.97;;;4.07;87.16
78168;BME280;67410;42.698;23.378;2024-03-08T04:22:17;95685.53;;;4.17;87.25
78168;BME280;67410;42.698;23.378;2024-03-08T04:24:44;95677.34;;;4.28;88.00
78168;BME280;67410;42.698;23.378;2024-03-08T04:27:10;95689.69;;;4.34;86.43
78168;BME280;67410;42.698;23.378;2024-03-08T04:29:36;95690.31;;;4.36;85.86
78168;BME280;67410;42.698;23.378;2024-03-08T04:32:04;95688.56;;;4.28;86.24
78168;BME280;67410;42.698;23.378;2024-03-08T04:34:31;95683.88;;;4.24;86.60
78168;BME280;67410;42.698;23.378;2024-03-08T04:36:57;95696.53;;;4.35;86.22
78168;BME280;67410;42.698;23.378;2024-03-08T04:39:24;95695.25;;;4.31;85.75
78168;BME280;67410;42.698;23.378;2024-03-08T04:41:54;95705.97;;;4.36;85.36
78168;BME280;67410;42.698;23.378;2024-03-08T04:44:23;95704.34;;;4.35;86.36
78168;BME280;67410;42.698;23.378;2024-03-08T04:46:50;95702.66;;;4.42;87.56
78168;BME280;67410;42.698;23.378;2024-03-08T04:49:16;95702.59;;;4.50;87.21
78168;BME280;67410;42.698;23.378;2024-03-08T04:51:42;95710.22;;;4.60;86.17
78168;BME280;67410;42.698;23.378;2024-03-08T04:54:10;95707.09;;;4.64;86.99
78168;BME280;67410;42.698;23.378;2024-03-08T04:56:36;95702.84;;;4.63;86.00
78168;BME280;67410;42.698;23.378;2024-03-08T04:59:03;95715.44;;;4.60;86.83
78168;BME280;67410;42.698;23.378;2024-03-08T05:01:29;95711.66;;;4.62;87.41
78168;BME280;67410;42.698;23.378;2024-03-08T05:03:55;95717.53;;;4.64;87.47
78168;BME280;67410;42.698;23.378;2024-03-08T05:06:21;95708.06;;;4.63;87.23
78168;BME280;67410;42.698;23.378;2024-03-08T05:08:49;95714.63;;;4.59;86.63
78168;BME280;67410;42.698;23.378;2024-03-08T05:11:15;95729.16;;;4.54;86.71
78168;BME280;67410;42.698;23.378;2024-03-08T05:13:41;95721.16;;;4.55;85.62
78168;BME280;67410;42.698;23.378;2024-03-08T05:16:07;95725.94;;;4.66;85.34
78168;BME280;67410;42.698;23.378;2024-03-08T05:18:34;95732.28;;;4.72;85.68
78168;BME280;67410;42.698;23.378;2024-03-08T05:21:02;95735.41;;;4.67;84.52
78168;BME280;67410;42.698;23.378;2024-03-08T05:23:32;95734.41;;;4.68;85.21
78168;BME280;67410;42.698;23.378;2024-03-08T05:25:59;95738.59;;;4.55;85.69
78168;BME280;67410;42.698;23.378;2024-03-08T05:28:25;95735.72;;;4.41;86.58
78168;BME280;67410;42.698;23.378;2024-03-08T05:30:51;95732.94;;;4.43;86.51
78168;BME280;67410;42.698;23.378;2024-03-08T05:33:17;95751.41;;;4.64;85.08
78168;BME280;67410;42.698;23.378;2024-03-08T05:35:43;95756.34;;;4.59;85.41
78168;BME280;67410;42.698;23.378;2024-03-08T05:38:09;95757.44;;;4.65;86.56
78168;BME280;67410;42.698;23.378;2024-03-08T05:40:36;95768.44;;;4.75;87.25
78168;BME280;67410;42.698;23.378;2024-03-08T05:43:02;95766.59;;;4.61;86.22
78168;BME280;67410;42.698;23.378;2024-03-08T05:45:28;95776.59;;;4.49;86.08
78168;BME280;67410;42.698;23.378;2024-03-08T05:47:54;95777.84;;;4.30;87.42
78168;BME280;67410;42.698;23.378;2024-03-08T05:50:20;95780.22;;;4.01;88.39
78168;BME280;67410;42.698;23.378;2024-03-08T05:52:46;95781.69;;;4.03;88.84
78168;BME280;67410;42.698;23.378;2024-03-08T05:55:13;95787.84;;;4.11;87.29
78168;BME280;67410;42.698;23.378;2024-03-08T05:57:41;95785.09;;;4.04;86.98
78168;BME280;67410;42.698;23.378;2024-03-08T06:00:09;95784.06;;;4.21;86.51
78168;BME280;67410;42.698;23.378;2024-03-08T06:02:38;95784.69;;;4.23;82.53
78168;BME280;67410;42.698;23.378;2024-03-08T06:05:10;95792.59;;;4.38;83.82
78168;BME280;67410;42.698;23.378;2024-03-08T06:07:37;95796.81;;;4.47;84.14
78168;BME280;67410;42.698;23.378;2024-03-08T06:10:07;95793.34;;;4.24;82.70
78168;BME280;67410;42.698;23.378;2024-03-08T06:12:36;95796.13;;;4.14;82.37
78168;BME280;67410;42.698;23.378;2024-03-08T06:15:08;95801.94;;;4.32;83.32
78168;BME280;67410;42.698;23.378;2024-03-08T06:17:36;95797.81;;;4.38;82.03
78168;BME280;67410;42.698;23.378;2024-03-08T06:20:02;95801.00;;;4.56;81.39
78168;BME280;67410;42.698;23.378;2024-03-08T06:22:30;95806.34;;;4.32;82.02
78168;BME280;67410;42.698;23.378;2024-03-08T06:24:56;95809.94;;;4.31;81.66
78168;BME280;67410;42.698;23.378;2024-03-08T06:27:22;95816.00;;;4.54;82.93
78168;BME280;67410;42.698;23.378;2024-03-08T06:29:48;95817.38;;;4.73;83.57
78168;BME280;67410;42.698;23.378;2024-03-08T06:32:15;95812.63;;;4.46;81.20
78168;BME280;67410;42.698;23.378;2024-03-08T06:34:44;95819.81;;;4.74;82.70
78168;BME280;67410;42.698;23.378;2024-03-08T06:37:10;95811.72;;;4.92;82.03
78168;BME280;67410;42.698;23.378;2024-03-08T06:39:36;95817.00;;;5.07;81.97
78168;BME280;67410;42.698;23.378;2024-03-08T06:42:02;95815.97;;;5.16;80.83
78168;BME280;67410;42.698;23.378;2024-03-08T06:44:30;95817.16;;;5.28;80.41
78168;BME280;67410;42.698;23.378;2024-03-08T06:46:56;95821.16;;;5.39;78.97
78168;BME280;67410;42.698;23.378;2024-03-08T06:49:22;95821.06;;;5.47;79.38
78168;BME280;67410;42.698;23.378;2024-03-08T06:51:51;95817.84;;;5.45;78.43
78168;BME280;67410;42.698;23.378;2024-03-08T06:54:17;95826.75;;;5.51;78.32
78168;BME280;67410;42.698;23.378;2024-03-08T06:56:43;95816.50;;;5.49;77.94
78168;BME280;67410;42.698;23.378;2024-03-08T06:59:10;95828.56;;;5.73;77.96
78168;BME280;67410;42.698;23.378;2024-03-08T07:01:36;95820.28;;;5.47;76.84
78168;BME280;67410;42.698;23.378;2024-03-08T07:04:02;95828.66;;;5.42;77.00
78168;BME280;67410;42.698;23.378;2024-03-08T07:06:31;95826.59;;;5.52;76.04
78168;BME280;67410;42.698;23.378;2024-03-08T07:08:59;95838.06;;;5.66;75.41
78168;BME280;67410;42.698;23.378;2024-03-08T07:11:25;95829.88;;;5.69;76.27
78168;BME280;67410;42.698;23.378;2024-03-08T07:13:51;95836.13;;;5.83;77.44
78168;BME280;67410;42.698;23.378;2024-03-08T07:16:17;95840.50;;;5.90;76.05
78168;BME280;67410;42.698;23.378;2024-03-08T07:18:44;95834.25;;;5.54;76.00
78168;BME280;67410;42.698;23.378;2024-03-08T07:21:11;95840.34;;;5.84;76.95
78168;BME280;67410;42.698;23.378;2024-03-08T07:23:37;95844.28;;;6.02;76.25
78168;BME280;67410;42.698;23.378;2024-03-08T07:26:20;95840.84;;;6.31;75.73
78168;BME280;67410;42.698;23.378;2024-03-08T07:28:46;95839.50;;;6.50;76.79
78168;BME280;67410;42.698;23.378;2024-03-08T07:31:12;95842.75;;;6.52;76.92
78168;BME280;67410;42.698;23.378;2024-03-08T07:33:52;95836.03;;;6.28;75.06
78168;BME280;67410;42.698;23.378;2024-03-08T07:36:21;95839.16;;;6.38;76.60
78168;BME280;67410;42.698;23.378;2024-03-08T07:38:49;95840.94;;;6.67;75.91
78168;BME280;67410;42.698;23.378;2024-03-08T07:41:15;95837.69;;;7.01;76.53
78168;BME280;67410;42.698;23.378;2024-03-08T07:43:42;95846.44;;;7.30;74.51
78168;BME280;67410;42.698;23.378;2024-03-08T07:46:09;95844.81;;;7.50;74.21
78168;BME280;67410;42.698;23.378;2024-03-08T07:48:36;95836.50;;;7.68;73.92
78168;BME280;67410;42.698;23.378;2024-03-08T07:51:02;95845.09;;;7.34;71.97
78168;BME280;67410;42.698;23.378;2024-03-08T07:53:29;95849.25;;;6.92;73.06
78168;BME280;67410;42.698;23.378;2024-03-08T07:55:55;95843.94;;;6.86;73.55
78168;BME280;67410;42.698;23.378;2024-03-08T07:58:21;95844.19;;;7.05;73.97
78168;BME280;67410;42.698;23.378;2024-03-08T08:00:49;95840.63;;;7.13;72.45
78168;BME280;67410;42.698;23.378;2024-03-08T08:03:15;95832.22;;;7.18;72.37
78168;BME280;67410;42.698;23.378;2024-03-08T08:05:42;95842.19;;;7.50;72.65
78168;BME280;67410;42.698;23.378;2024-03-08T08:08:08;95831.63;;;7.86;70.51
78168;BME280;67410;42.698;23.378;2024-03-08T08:10:37;95837.00;;;8.06;69.82
78168;BME280;67410;42.698;23.378;2024-03-08T08:13:03;95846.53;;;8.41;69.82
78168;BME280;67410;42.698;23.378;2024-03-08T08:15:32;95838.16;;;8.66;66.88
78168;BME280;67410;42.698;23.378;2024-03-08T08:18:01;95839.31;;;8.98;67.61
78168;BME280;67410;42.698;23.378;2024-03-08T08:20:31;95838.28;;;8.99;64.77
78168;BME280;67410;42.698;23.378;2024-03-08T08:22:57;95835.63;;;8.92;63.61
78168;BME280;67410;42.698;23.378;2024-03-08T08:25:24;95834.94;;;9.38;65.19
78168;BME280;67410;42.698;23.378;2024-03-08T08:27:50;95834.94;;;9.58;62.64
78168;BME280;67410;42.698;23.378;2024-03-08T08:30:17;95830.31;;;9.60;60.49
78168;BME280;67410;42.698;23.378;2024-03-08T08:32:43;95837.72;;;9.16;61.28
78168;BME280;67410;42.698;23.378;2024-03-08T08:35:09;95842.59;;;9.33;60.10
78168;BME280;67410;42.698;23.378;2024-03-08T08:37:41;95839.22;;;9.52;62.78
78168;BME280;67410;42.698;23.378;2024-03-08T08:40:08;95844.09;;;9.81;61.32
78168;BME280;67410;42.698;23.378;2024-03-08T08:42:40;95835.78;;;9.71;61.10
78168;BME280;67410;42.698;23.378;2024-03-08T08:45:07;95832.94;;;10.19;63.00
78168;BME280;67410;42.698;23.378;2024-03-08T08:47:36;95836.94;;;10.41;56.77
78168;BME280;67410;42.698;23.378;2024-03-08T08:50:03;95830.25;;;10.45;58.27
78168;BME280;67410;42.698;23.378;2024-03-08T08:52:32;95820.78;;;10.38;58.93
78168;BME280;67410;42.698;23.378;2024-03-08T08:55:00;95820.72;;;11.02;56.05
78168;BME280;67410;42.698;23.378;2024-03-08T08:57:26;95818.28;;;11.07;60.27
78168;BME280;67410;42.698;23.378;2024-03-08T08:59:53;95819.56;;;11.30;59.49
78168;BME280;67410;42.698;23.378;2024-03-08T09:02:21;95824.00;;;11.92;56.02
78168;BME280;67410;42.698;23.378;2024-03-08T09:04:47;95825.41;;;12.19;57.10
78168;BME280;67410;42.698;23.378;2024-03-08T09:07:14;95821.91;;;11.44;55.86
78168;BME280;67410;42.698;23.378;2024-03-08T09:09:42;95820.13;;;10.42;57.41
78168;BME280;67410;42.698;23.378;2024-03-08T09:12:08;95825.22;;;10.95;57.25
78168;BME280;67410;42.698;23.378;2024-03-08T09:14:35;95812.59;;;11.04;60.02
78168;BME280;67410;42.698;23.378;2024-03-08T09:17:01;95813.31;;;11.56;57.00
78168;BME280;67410;42.698;23.378;2024-03-08T09:19:28;95815.66;;;11.95;55.68
78168;BME280;67410;42.698;23.378;2024-03-08T09:21:54;95808.69;;;12.80;53.06
78168;BME280;67410;42.698;23.378;2024-03-08T09:24:20;95811.22;;;12.14;56.32
78168;BME280;67410;42.698;23.378;2024-03-08T09:26:47;95814.03;;;12.37;54.58
78168;BME280;67410;42.698;23.378;2024-03-08T09:29:13;95817.78;;;12.66;53.07
78168;BME280;67410;42.698;23.378;2024-03-08T09:31:39;95814.03;;;12.37;52.41
78168;BME280;67410;42.698;23.378;2024-03-08T09:34:07;95816.88;;;12.17;53.28
78168;BME280;67410;42.698;23.378;2024-03-08T09:36:35;95812.72;;;12.28;53.09
78168;BME280;67410;42.698;23.378;2024-03-08T09:39:01;95815.63;;;12.20;53.26
78168;BME280;67410;42.698;23.378;2024-03-08T09:41:27;95807.78;;;11.64;54.50
78168;BME280;67410;42.698;23.378;2024-03-08T09:43:53;95817.16;;;11.53;55.48
78168;BME280;67410;42.698;23.378;2024-03-08T09:46:23;95815.03;;;11.43;53.37
78168;BME280;67410;42.698;23.378;2024-03-08T09:48:49;95811.00;;;11.34;54.45
78168;BME280;67410;42.698;23.378;2024-03-08T09:51:16;95813.34;;;11.49;55.06
78168;BME280;67410;42.698;23.378;2024-03-08T09:53:42;95806.50;;;11.10;54.07
78168;BME280;67410;42.698;23.378;2024-03-08T09:56:08;95810.22;;;11.34;57.05
78168;BME280;67410;42.698;23.378;2024-03-08T09:58:34;95809.25;;;10.32;57.90
78168;BME280;67410;42.698;23.378;2024-03-08T10:01:00;95821.94;;;11.00;59.99
78168;BME280;67410;42.698;23.378;2024-03-08T10:03:28;95813.34;;;11.80;54.11
78168;BME280;67410;42.698;23.378;2024-03-08T10:05:56;95814.13;;;12.85;53.24
78168;BME280;67410;42.698;23.378;2024-03-08T10:08:27;95809.78;;;13.39;49.09
78168;BME280;67410;42.698;23.378;2024-03-08T10:10:56;95810.06;;;14.78;50.45
78168;BME280;67410;42.698;23.378;2024-03-08T10:13:25;95806.47;;;14.44;49.77
78168;BME280;67410;42.698;23.378;2024-03-08T10:15:53;95810.72;;;13.57;48.00
78168;BME280;67410;42.698;23.378;2024-03-08T10:18:21;95822.25;;;13.62;47.19
78168;BME280;67410;42.698;23.378;2024-03-08T10:21:02;95811.38;;;14.75;47.36
78168;BME280;67410;42.698;23.378;2024-03-08T10:23:30;95798.56;;;15.86;45.44
78168;BME280;67410;42.698;23.378;2024-03-08T10:25:56;95799.56;;;14.83;45.17
78168;BME280;67410;42.698;23.378;2024-03-08T10:28:24;95789.19;;;14.81;46.42
78168;BME280;67410;42.698;23.378;2024-03-08T10:30:56;95811.44;;;13.64;48.02
78168;BME280;67410;42.698;23.378;2024-03-08T10:33:24;95794.69;;;13.10;46.86
78168;BME280;67410;42.698;23.378;2024-03-08T10:35:51;95799.28;;;13.98;47.63
78168;BME280;67410;42.698;23.378;2024-03-08T10:38:20;95798.81;;;14.01;48.95
78168;BME280;67410;42.698;23.378;2024-03-08T10:40:48;95800.16;;;12.97;51.36
78168;BME280;67410;42.698;23.378;2024-03-08T10:43:26;95799.81;;;12.75;52.58
78168;BME280;67410;42.698;23.378;2024-03-08T10:46:08;95790.41;;;12.61;49.97
78168;BME280;67410;42.698;23.378;2024-03-08T10:48:45;95787.78;;;12.24;51.30
78168;BME280;67410;42.698;23.378;2024-03-08T10:51:14;95790.38;;;12.06;49.95
78168;BME280;67410;42.698;23.378;2024-03-08T10:53:42;95782.66;;;11.86;52.72
78168;BME280;67410;42.698;23.378;2024-03-08T10:56:09;95791.75;;;11.34;53.41
78168;BME280;67410;42.698;23.378;2024-03-08T10:58:36;95779.72;;;11.69;54.28
78168;BME280;67410;42.698;23.378;2024-03-08T11:01:03;95775.06;;;11.96;51.60
78168;BME280;67410;42.698;23.378;2024-03-08T11:09:29;95775.22;;;13.64;48.68
78168;BME280;67410;42.698;23.378;2024-03-08T11:12:27;95777.09;;;14.22;47.08
78168;BME280;67410;42.698;23.378;2024-03-08T11:15:03;95774.88;;;14.07;45.79
78168;BME280;67410;42.698;23.378;2024-03-08T11:20:23;95769.81;;;14.06;45.75
78168;BME280;67410;42.698;23.378;2024-03-08T11:22:52;95763.56;;;14.35;45.47
78168;BME280;67410;42.698;23.378;2024-03-08T11:25:41;95758.72;;;14.96;42.96
78168;BME280;67410;42.698;23.378;2024-03-08T11:28:18;95759.81;;;14.43;43.99
78168;BME280;67410;42.698;23.378;2024-03-08T11:30:46;95760.94;;;14.87;45.00
78168;BME280;67410;42.698;23.378;2024-03-08T11:33:15;95763.03;;;14.85;44.65
78168;BME280;67410;42.698;23.378;2024-03-08T11:35:42;95748.63;;;15.54;43.77
78168;BME280;67410;42.698;23.378;2024-03-08T11:38:11;95753.97;;;15.71;40.44
78168;BME280;67410;42.698;23.378;2024-03-08T11:40:39;95751.75;;;16.18;44.04
78168;BME280;67410;42.698;23.378;2024-03-08T11:43:06;95741.56;;;16.10;42.21
78168;BME280;67410;42.698;23.378;2024-03-08T11:45:34;95743.13;;;15.28;43.32
78168;BME280;67410;42.698;23.378;2024-03-08T11:48:05;95739.47;;;15.00;43.91
78168;BME280;67410;42.698;23.378;2024-03-08T11:50:31;95740.91;;;16.03;43.95
78168;BME280;67410;42.698;23.378;2024-03-08T11:53:05;95739.13;;;16.09;40.32
78168;BME280;67410;42.698;23.378;2024-03-08T11:55:32;95743.56;;;14.79;41.70
78168;BME280;67410;42.698;23.378;2024-03-08T11:58:02;95734.28;;;14.65;43.26
78168;BME280;67410;42.698;23.378;2024-03-08T12:00:29;95744.72;;;14.08;44.31
78168;BME280;67410;42.698;23.378;2024-03-08T12:03:05;95752.19;;;13.53;45.47
78168;BME280;67410;42.698;23.378;2024-03-08T12:05:32;95743.88;;;13.38;45.94
78168;BME280;67410;42.698;23.378;2024-03-08T12:08:00;95743.34;;;12.58;47.34
78168;BME280;67410;42.698;23.378;2024-03-08T12:10:27;95746.84;;;11.97;49.56
78168;BME280;67410;42.698;23.378;2024-03-08T12:12:57;95744.69;;;13.38;47.95
78168;BME280;67410;42.698;23.378;2024-03-08T12:15:25;95741.50;;;14.18;42.94
78168;BME280;67410;42.698;23.378;2024-03-08T12:17:52;95735.38;;;14.41;45.17
78168;BME280;67410;42.698;23.378;2024-03-08T12:20:27;95747.44;;;15.17;43.65
78168;BME280;67410;42.698;23.378;2024-03-08T12:22:56;95739.69;;;15.27;43.55
78168;BME280;67410;42.698;23.378;2024-03-08T12:25:31;95735.69;;;15.13;42.67
78168;BME280;67410;42.698;23.378;2024-03-08T12:28:07;95735.13;;;15.89;42.23
78168;BME280;67410;42.698;23.378;2024-03-08T12:30:45;95735.03;;;16.01;42.53
78168;BME280;67410;42.698;23.378;2024-03-08T12:33:12;95733.28;;;16.29;42.77
78168;BME280;67410;42.698;23.378;2024-03-08T12:35:38;95727.78;;;15.97;39.68
78168;BME280;67410;42.698;23.378;2024-03-08T12:38:05;95719.53;;;16.15;40.22
78168;BME280;67410;42.698;23.378;2024-03-08T12:40:32;95728.94;;;16.01;41.50
78168;BME280;67410;42.698;23.378;2024-03-08T12:43:01;95724.97;;;15.86;40.43
78168;BME280;67410;42.698;23.378;2024-03-08T12:45:28;95723.03;;;15.99;38.23
78168;BME280;67410;42.698;23.378;2024-03-08T12:47:55;95712.44;;;15.48;42.78
78168;BME280;67410;42.698;23.378;2024-03-08T12:50:22;95714.28;;;15.98;40.79
78168;BME280;67410;42.698;23.378;2024-03-08T12:52:49;95714.44;;;15.91;41.00
78168;BME280;67410;42.698;23.378;2024-03-08T12:55:15;95716.41;;;16.18;39.29
78168;BME280;67410;42.698;23.378;2024-03-08T12:57:42;95714.44;;;16.08;39.97
78168;BME280;67410;42.698;23.378;2024-03-08T13:00:09;95712.09;;;16.34;39.40
78168;BME280;67410;42.698;23.378;2024-03-08T13:02:49;95713.78;;;16.40;39.79
78168;BME280;67410;42.698;23.378;2024-03-08T13:05:17;95714.88;;;16.44;38.75
78168;BME280;67410;42.698;23.378;2024-03-08T13:07:43;95710.56;;;15.99;37.99